Time;durP1;ratioP1;P1;durP2;ratioP2;P2;SDS_P1;SDS_P2;PMS_P1;PMS_P2;Temp;Humidity;BMP_temperature;BMP_pressure;BME280_temperature;BME280_humidity;BME280_pressure;Samples;Min_cycle;Max_cycle;Signal;HPM_P1;HPM_P2
2023/07/20 00:00:13;;;;;;;10.75;6.88;;;19.90;99.50;;;;;;5077741;28;20073;-94
2023/07/20 00:02:39;;;;;;;11.73;6.97;;;19.90;99.80;;;;;;5094316;28;20016;-93
2023/07/20 00:05:14;;;;;;;12.65;7.53;;;19.80;99.80;;;;;;5060693;28;20529;-94
2023/07/20 00:07:41;;;;;;;14.65;7.82;;;19.80;99.90;;;;;;5059827;28;20052;-94
2023/07/20 00:10:13;;;;;;;11.13;6.38;;;19.80;99.90;;;;;;5061086;28;20036;-93
2023/07/20 00:12:39;;;;;;;7.65;5.70;;;19.80;99.90;;;;;;5077018;28;20032;-87
2023/07/20 00:15:07;;;;;;;9.63;5.47;;;19.80;99.90;;;;;;5093521;28;20046;-88
2023/07/20 00:17:33;;;;;;;9.68;5.97;;;19.70;99.90;;;;;;5076171;28;20035;-88
2023/07/20 00:20:11;;;;;;;8.90;5.70;;;19.70;99.90;;;;;;5076296;28;20020;-88
2023/07/20 00:22:37;;;;;;;9.82;5.35;;;19.70;99.90;;;;;;5076272;28;20040;-88
2023/07/20 00:25:18;;;;;;;9.73;5.85;;;19.70;99.90;;;;;;5059514;28;20037;-88
2023/07/20 00:27:51;;;;;;;7.20;5.53;;;19.70;99.90;;;;;;5093130;28;20054;-88
2023/07/20 00:30:18;;;;;;;10.38;5.78;;;19.60;99.90;;;;;;5076580;28;20024;-90
2023/07/20 00:32:44;;;;;;;8.60;5.40;;;19.60;99.90;;;;;;5076915;28;20085;-89
2023/07/20 00:35:11;;;;;;;13.65;5.95;;;19.60;99.90;;;;;;5093359;28;20024;-90
2023/07/20 00:37:37;;;;;;;8.60;5.70;;;19.60;99.90;;;;;;5087954;28;20019;-94
2023/07/20 00:40:04;;;;;;;9.05;5.47;;;19.50;99.90;;;;;;5102182;28;20013;-93
2023/07/20 00:42:30;;;;;;;8.55;5.32;;;19.50;99.90;;;;;;5102201;28;20032;-94
2023/07/20 00:44:56;;;;;;;8.70;5.53;;;19.50;99.90;;;;;;5099158;28;20096;-91
2023/07/20 00:47:21;;;;;;;13.93;6.13;;;19.50;99.90;;;;;;5077346;28;20048;-91
2023/07/20 00:49:48;;;;;;;8.82;5.43;;;19.40;99.90;;;;;;5077037;28;20028;-91
2023/07/20 00:52:14;;;;;;;8.63;5.53;;;19.40;99.90;;;;;;5076966;28;20028;-91
2023/07/20 00:54:41;;;;;;;9.60;6.10;;;19.50;99.90;;;;;;5060304;28;20021;-90
2023/07/20 00:57:08;;;;;;;9.07;5.45;;;19.40;99.90;;;;;;5093926;28;20381;-91
2023/07/20 00:59:43;;;;;;;9.45;6.15;;;19.40;99.90;;;;;;5077016;28;20035;-90
2023/07/20 01:02:27;;;;;;;10.38;5.72;;;19.40;99.90;;;;;;5077413;28;20548;-95
2023/07/20 01:05:00;;;;;;;9.10;5.75;;;19.40;99.90;;;;;;5059999;28;20024;-94
2023/07/20 01:07:55;;;;;;;8.18;5.47;;;19.40;99.90;;;;;;5060403;28;20043;-94
2023/07/20 01:10:31;;;;;;;8.98;5.55;;;19.30;99.90;;;;;;5093685;28;20461;-94
2023/07/20 01:12:57;;;;;;;9.38;5.70;;;19.40;99.90;;;;;;5093217;28;20141;-94
2023/07/20 01:15:23;;;;;;;7.75;5.22;;;19.30;99.90;;;;;;5093623;28;20457;-95
2023/07/20 01:17:48;;;;;;;7.80;4.53;;;19.30;99.90;;;;;;5059904;28;20039;-90
2023/07/20 01:20:16;;;;;;;7.38;4.70;;;19.30;99.90;;;;;;5059439;28;20177;-90
2023/07/20 01:23:03;;;;;;;8.50;4.70;;;19.30;99.90;;;;;;5076596;28;20073;-91
2023/07/20 01:25:51;;;;;;;8.13;4.70;;;19.30;99.90;;;;;;5093385;28;20085;-90
2023/07/20 01:28:32;;;;;;;7.13;5.00;;;19.30;99.90;;;;;;5093042;28;20063;-93
2023/07/20 01:31:19;;;;;;;7.68;5.07;;;19.30;99.90;;;;;;5093274;28;20013;-90
2023/07/20 01:33:47;;;;;;;9.52;4.60;;;19.30;99.90;;;;;;5093023;28;20020;-91
2023/07/20 01:36:14;;;;;;;8.82;4.80;;;19.20;99.90;;;;;;5109451;28;20004;-95
2023/07/20 01:38:44;;;;;;;7.85;4.65;;;19.20;99.90;;;;;;5118227;28;20028;-94
2023/07/20 01:41:10;;;;;;;8.50;4.97;;;19.20;99.90;;;;;;5103083;28;20011;-94
2023/07/20 01:43:36;;;;;;;8.30;5.38;;;19.20;99.90;;;;;;5105130;28;20012;-94
2023/07/20 01:46:08;;;;;;;7.82;4.95;;;19.20;99.90;;;;;;5088423;28;20091;-94
2023/07/20 01:48:34;;;;;;;7.13;4.50;;;19.20;99.90;;;;;;5088478;28;20030;-94
2023/07/20 01:51:00;;;;;;;6.65;4.47;;;19.10;99.90;;;;;;5087984;28;20024;-94
2023/07/20 01:53:26;;;;;;;8.35;4.57;;;19.10;99.90;;;;;;5083524;28;20066;-90
2023/07/20 01:55:55;;;;;;;9.30;4.78;;;19.10;99.90;;;;;;5097153;28;20020;-90
2023/07/20 01:58:20;;;;;;;8.45;4.70;;;19.10;99.90;;;;;;5079663;28;20039;-90
2023/07/20 02:00:46;;;;;;;7.47;5.10;;;19.10;99.90;;;;;;5080358;28;20020;-90
2023/07/20 02:03:12;;;;;;;8.65;4.80;;;19.10;99.90;;;;;;5096024;28;20034;-90
2023/07/20 02:05:38;;;;;;;6.47;4.75;;;19.10;99.90;;;;;;5062765;28;20028;-90
2023/07/20 02:08:04;;;;;;;7.47;4.72;;;19.10;99.90;;;;;;5079531;28;20024;-89
2023/07/20 02:10:30;;;;;;;6.07;4.32;;;19.10;99.90;;;;;;5096100;28;20456;-89
2023/07/20 02:12:55;;;;;;;6.35;3.80;;;19.00;99.90;;;;;;5096085;28;20028;-90
2023/07/20 02:15:21;;;;;;;6.07;4.20;;;19.00;99.90;;;;;;5062663;28;20020;-89
2023/07/20 02:17:47;;;;;;;6.97;4.60;;;19.00;99.90;;;;;;5062722;28;20055;-89
2023/07/20 02:20:13;;;;;;;7.95;4.45;;;19.00;99.90;;;;;;5096758;28;20052;-89
2023/07/20 02:22:39;;;;;;;6.05;4.07;;;19.00;99.90;;;;;;5095964;28;20392;-89
2023/07/20 02:25:12;;;;;;;6.93;4.28;;;18.90;99.90;;;;;;5079687;28;20037;-89
2023/07/20 02:27:41;;;;;;;5.93;4.13;;;18.90;99.90;;;;;;5083720;28;20033;-89
2023/07/20 02:30:09;;;;;;;6.45;4.05;;;18.90;99.90;;;;;;5075755;28;20024;-89
2023/07/20 02:32:34;;;;;;;5.50;3.83;;;18.90;99.90;;;;;;5075491;28;20046;-94
2023/07/20 02:35:00;;;;;;;5.78;3.88;;;18.80;99.90;;;;;;5075960;28;20477;-93
2023/07/20 02:37:26;;;;;;;6.53;4.22;;;18.80;99.90;;;;;;5075910;28;20024;-93
2023/07/20 02:39:51;;;;;;;5.47;3.55;;;18.80;99.90;;;;;;5076618;28;20124;-93
2023/07/20 02:42:17;;;;;;;5.80;3.80;;;18.80;99.90;;;;;;5077112;28;20139;-90
2023/07/20 02:44:43;;;;;;;6.28;3.60;;;18.70;99.90;;;;;;5091984;28;20118;-89
2023/07/20 02:47:08;;;;;;;6.07;3.65;;;18.70;99.90;;;;;;5075105;28;20489;-89
2023/07/20 02:49:34;;;;;;;4.88;3.50;;;18.70;99.90;;;;;;5075524;28;20028;-90
2023/07/20 02:52:00;;;;;;;10.95;3.55;;;18.60;99.90;;;;;;5091976;28;20021;-90
2023/07/20 02:54:25;;;;;;;5.72;3.40;;;18.60;99.90;;;;;;5091515;28;20079;-89
2023/07/20 02:56:51;;;;;;;7.15;3.55;;;18.60;99.90;;;;;;5092438;28;20500;-91
2023/07/20 02:59:17;;;;;;;7.28;3.53;;;18.50;99.90;;;;;;5075196;28;20496;-90
2023/07/20 03:01:42;;;;;;;6.55;3.67;;;18.50;99.90;;;;;;5091756;28;20032;-89
2023/07/20 03:04:12;;;;;;;4.70;3.13;;;18.40;99.90;;;;;;5078009;28;20181;-89
2023/07/20 03:06:38;;;;;;;7.05;3.05;;;18.40;99.90;;;;;;5079206;28;20373;-89
2023/07/20 03:09:04;;;;;;;6.53;3.30;;;18.40;99.90;;;;;;5078108;28;20033;-90
2023/07/20 03:11:32;;;;;;;6.50;3.10;;;18.30;99.90;;;;;;5082073;28;20436;-90
2023/07/20 03:13:57;;;;;;;4.65;3.10;;;18.30;99.90;;;;;;5077160;28;20032;-93
2023/07/20 03:16:24;;;;;;;5.35;3.22;;;18.30;99.90;;;;;;5076583;28;20135;-92
2023/07/20 03:18:52;;;;;;;5.28;3.20;;;18.30;99.90;;;;;;5075604;28;20048;-90
2023/07/20 03:21:17;;;;;;;6.10;3.20;;;18.20;99.90;;;;;;5075954;28;20032;-90
2023/07/20 03:23:43;;;;;;;5.57;2.90;;;18.20;99.90;;;;;;5074915;28;20040;-91
2023/07/20 03:26:09;;;;;;;4.63;3.20;;;18.10;99.90;;;;;;5074602;28;20451;-91
2023/07/20 03:28:47;;;;;;;4.82;3.42;;;18.10;99.90;;;;;;5076517;28;20493;-90
2023/07/20 03:34:44;;;;;;;7.18;3.55;;;18.00;99.90;;;;;;5051087;28;20043;-87
2023/07/20 03:37:09;;;;;;;7.47;3.80;;;18.00;99.90;;;;;;5093835;28;20028;-88
2023/07/20 03:39:35;;;;;;;4.82;3.40;;;17.90;99.90;;;;;;5093004;28;20119;-87
2023/07/20 03:42:02;;;;;;;5.50;3.40;;;17.90;99.90;;;;;;5093291;28;20043;-87
2023/07/20 03:44:29;;;;;;;6.63;3.70;;;17.90;99.90;;;;;;5076084;28;20028;-87
2023/07/20 03:46:54;;;;;;;5.63;3.28;;;17.90;99.90;;;;;;5076127;28;20032;-87
2023/07/20 03:49:21;;;;;;;6.13;3.22;;;17.80;99.90;;;;;;5076395;28;20032;-90
2023/07/20 03:51:46;;;;;;;5.20;3.65;;;17.80;99.90;;;;;;5076898;28;20032;-90
2023/07/20 03:54:12;;;;;;;5.03;3.25;;;17.80;99.90;;;;;;5076503;28;20054;-89
2023/07/20 03:56:37;;;;;;;4.80;3.42;;;17.80;99.90;;;;;;5076062;28;20140;-88
2023/07/20 03:59:03;;;;;;;5.13;3.28;;;17.80;99.90;;;;;;5075749;28;20032;-87
2023/07/20 04:01:29;;;;;;;5.68;3.85;;;17.70;99.90;;;;;;5087441;28;20044;-87
2023/07/20 04:03:55;;;;;;;5.88;3.95;;;17.70;99.90;;;;;;5073174;28;20055;-87
2023/07/20 04:06:21;;;;;;;8.35;4.57;;;17.70;99.90;;;;;;5094127;28;20024;-90
2023/07/20 04:08:49;;;;;;;9.60;3.60;;;17.70;99.90;;;;;;5077195;28;20016;-89
2023/07/20 04:11:15;;;;;;;6.97;3.80;;;17.60;99.90;;;;;;5076994;28;20032;-87
2023/07/20 04:13:41;;;;;;;6.28;3.97;;;17.60;99.90;;;;;;5076819;28;20115;-87
2023/07/20 04:16:06;;;;;;;7.25;4.07;;;17.60;99.90;;;;;;5093443;28;20553;-88
2023/07/20 04:18:32;;;;;;;5.20;4.05;;;17.60;99.90;;;;;;5076478;28;20407;-87
2023/07/20 04:20:58;;;;;;;6.53;4.28;;;17.50;99.90;;;;;;5076305;28;20481;-87
2023/07/20 04:23:23;;;;;;;8.02;4.60;;;17.50;99.90;;;;;;5067060;28;20111;-93
2023/07/20 04:25:49;;;;;;;5.50;3.80;;;17.50;99.90;;;;;;5080818;28;20488;-93
2023/07/20 04:28:15;;;;;;;5.47;4.10;;;17.50;99.90;;;;;;5084666;28;20016;-93
2023/07/20 04:30:40;;;;;;;8.18;4.43;;;17.50;99.90;;;;;;5081907;28;20488;-94
2023/07/20 04:33:06;;;;;;;7.07;4.72;;;17.40;99.90;;;;;;5065239;28;20488;-95
2023/07/20 04:35:52;;;;;;;5.55;3.80;;;17.40;99.90;;;;;;5070810;28;20024;-93
2023/07/20 04:38:18;;;;;;;6.28;3.60;;;17.40;99.90;;;;;;5084637;28;20031;-89
2023/07/20 04:40:46;;;;;;;7.15;4.70;;;17.40;99.90;;;;;;5077111;28;20153;-89
2023/07/20 04:43:12;;;;;;;5.97;4.47;;;17.40;99.90;;;;;;5077237;28;20059;-89
2023/07/20 04:45:38;;;;;;;5.35;3.97;;;17.40;99.90;;;;;;5060309;28;20461;-90
2023/07/20 04:48:07;;;;;;;4.10;3.10;;;17.40;99.90;;;;;;5076746;28;20031;-89
2023/07/20 04:50:32;;;;;;;10.23;4.28;;;17.40;99.90;;;;;;5077364;28;20050;-89
2023/07/20 04:52:58;;;;;;;8.38;3.83;;;17.40;99.90;;;;;;5060074;28;20036;-90
2023/07/20 04:55:23;;;;;;;7.93;3.88;;;17.40;99.90;;;;;;5060007;28;20379;-91
2023/07/20 04:57:49;;;;;;;4.75;3.40;;;17.40;99.90;;;;;;5060343;28;20035;-91
2023/07/20 05:00:15;;;;;;;4.18;3.22;;;17.50;99.90;;;;;;5076532;28;20028;-90
2023/07/20 05:02:41;;;;;;;5.85;3.63;;;17.50;99.90;;;;;;5061112;28;20024;-91
2023/07/20 05:05:07;;;;;;;4.13;3.05;;;17.50;99.90;;;;;;5059853;28;20027;-91
2023/07/20 05:07:33;;;;;;;4.65;3.25;;;17.50;99.90;;;;;;5060176;28;20028;-90
2023/07/20 05:09:59;;;;;;;5.00;3.22;;;17.50;99.90;;;;;;5059715;28;20048;-91
2023/07/20 05:12:24;;;;;;;4.75;3.20;;;17.50;99.90;;;;;;5061473;28;20020;-91
2023/07/20 05:14:50;;;;;;;5.20;3.50;;;17.50;99.90;;;;;;5077791;28;20028;-87
2023/07/20 05:17:16;;;;;;;3.72;2.70;;;17.50;99.90;;;;;;5080811;28;20526;-93
2023/07/20 05:19:41;;;;;;;3.85;2.90;;;17.50;99.90;;;;;;5066446;28;20052;-94
2023/07/20 05:22:13;;;;;;;5.55;3.47;;;17.60;99.90;;;;;;5068684;28;20031;-95
2023/07/20 05:24:38;;;;;;;4.63;2.83;;;17.60;99.90;;;;;;5102800;28;20051;-96
2023/07/20 05:27:04;;;;;;;4.88;3.05;;;17.60;99.90;;;;;;5083324;28;20423;-95
2023/07/20 05:29:30;;;;;;;4.03;3.03;;;17.60;99.90;;;;;;5064622;28;20020;-88
2023/07/20 05:31:56;;;;;;;4.00;2.50;;;17.70;99.90;;;;;;5096551;28;20089;-87
2023/07/20 05:34:21;;;;;;;8.48;2.55;;;17.70;99.90;;;;;;5063303;28;20373;-87
2023/07/20 05:36:47;;;;;;;3.38;2.70;;;17.70;99.90;;;;;;5062789;28;20028;-87
2023/07/20 05:39:13;;;;;;;4.65;3.25;;;17.70;99.90;;;;;;5079683;28;20119;-87
2023/07/20 05:41:38;;;;;;;4.18;2.60;;;17.70;99.90;;;;;;5079608;28;20028;-87
2023/07/20 05:44:04;;;;;;;7.57;2.88;;;17.80;99.90;;;;;;5062563;28;20028;-87
2023/07/20 05:46:30;;;;;;;4.68;3.15;;;17.80;99.90;;;;;;5081878;28;20031;-93
2023/07/20 05:48:55;;;;;;;3.90;2.50;;;17.80;99.90;;;;;;5097805;28;20030;-94
2023/07/20 05:51:21;;;;;;;3.58;2.50;;;17.80;99.90;;;;;;5064876;28;20111;-94
2023/07/20 05:53:47;;;;;;;3.38;2.35;;;17.80;99.90;;;;;;5080981;28;20028;-94
2023/07/20 05:56:14;;;;;;;4.00;2.40;;;17.90;99.90;;;;;;5063599;28;20453;-94
2023/07/20 05:58:39;;;;;;;5.63;2.75;;;17.90;99.90;;;;;;5080591;28;20119;-93
2023/07/20 06:01:06;;;;;;;3.97;2.50;;;17.90;99.90;;;;;;5097947;28;20053;-95
2023/07/20 06:03:33;;;;;;;4.43;2.10;;;17.90;99.90;;;;;;5096607;28;20055;-89
2023/07/20 06:06:01;;;;;;;3.28;2.08;;;17.90;99.90;;;;;;5079645;28;20024;-89
2023/07/20 06:08:30;;;;;;;3.38;1.98;;;18.00;99.90;;;;;;5079451;28;20024;-89
2023/07/20 06:10:56;;;;;;;1.73;1.40;;;18.00;99.90;;;;;;5062893;28;20054;-88
2023/07/20 06:13:22;;;;;;;2.97;1.45;;;18.00;99.90;;;;;;5096160;28;20016;-89
2023/07/20 06:15:48;;;;;;;3.40;1.50;;;18.10;99.90;;;;;;5079046;28;20491;-89
2023/07/20 06:18:14;;;;;;;1.90;1.35;;;18.10;99.90;;;;;;5096358;28;20101;-96
2023/07/20 06:20:40;;;;;;;3.33;1.50;;;18.10;99.90;;;;;;5097419;28;20461;-94
2023/07/20 06:23:05;;;;;;;3.88;1.15;;;18.10;99.90;;;;;;5063776;28;20031;-95
2023/07/20 06:25:31;;;;;;;1.52;1.17;;;18.20;99.90;;;;;;5062701;28;20036;-87
2023/07/20 06:27:57;;;;;;;1.75;1.10;;;18.20;99.90;;;;;;5061459;28;20031;-87
2023/07/20 06:30:24;;;;;;;3.75;1.00;;;18.20;99.90;;;;;;5061643;28;20047;-89
2023/07/20 06:32:49;;;;;;;1.75;1.10;;;18.20;99.90;;;;;;5079136;28;20469;-90
2023/07/20 06:35:16;;;;;;;1.70;1.10;;;18.30;99.90;;;;;;5079326;28;20440;-87
2023/07/20 06:37:42;;;;;;;3.10;1.55;;;18.30;99.90;;;;;;5095163;28;20074;-87
2023/07/20 06:40:11;;;;;;;2.45;1.30;;;18.30;99.90;;;;;;5078169;28;20057;-87
2023/07/20 06:42:37;;;;;;;2.20;1.10;;;18.30;99.90;;;;;;5062785;28;20024;-94
2023/07/20 06:45:03;;;;;;;3.72;1.10;;;18.40;99.90;;;;;;5080209;28;20024;-93
2023/07/20 06:47:28;;;;;;;4.38;1.15;;;18.40;99.90;;;;;;5063152;28;20032;-94
2023/07/20 06:49:54;;;;;;;2.33;1.08;;;18.40;99.90;;;;;;5079185;28;20062;-94
2023/07/20 06:52:20;;;;;;;2.53;1.15;;;18.40;99.90;;;;;;5070509;28;20112;-90
2023/07/20 06:54:45;;;;;;;2.25;1.10;;;18.50;99.90;;;;;;5061999;28;20024;-90
2023/07/20 06:57:11;;;;;;;6.28;0.90;;;18.50;99.90;;;;;;5062115;28;20016;-90
2023/07/20 06:59:37;;;;;;;1.80;1.00;;;18.50;99.90;;;;;;5062620;28;20024;-91
2023/07/20 07:02:02;;;;;;;4.60;1.30;;;18.60;99.90;;;;;;5095691;28;20024;-90
2023/07/20 07:04:28;;;;;;;2.53;1.42;;;18.60;99.90;;;;;;5095130;28;20047;-87
2023/07/20 07:06:54;;;;;;;3.17;1.50;;;18.60;99.90;;;;;;5061385;28;20024;-87
2023/07/20 07:09:25;;;;;;;2.28;1.20;;;18.70;99.90;;;;;;5095672;28;20090;-90
2023/07/20 07:11:50;;;;;;;1.80;1.08;;;18.70;99.90;;;;;;5062456;28;20102;-90
2023/07/20 07:14:16;;;;;;;2.95;0.98;;;18.70;99.90;;;;;;5078152;28;20093;-90
2023/07/20 07:16:42;;;;;;;4.60;1.45;;;18.70;99.90;;;;;;5078283;28;20075;-90
2023/07/20 07:19:08;;;;;;;1.15;0.80;;;18.70;99.90;;;;;;5078334;28;20027;-90
2023/07/20 07:21:34;;;;;;;2.50;0.82;;;18.80;99.90;;;;;;5078225;28;20055;-91
2023/07/20 07:23:59;;;;;;;1.42;1.00;;;18.80;99.90;;;;;;5061305;28;20036;-91
2023/07/20 07:26:25;;;;;;;1.67;1.02;;;18.80;99.90;;;;;;5078169;28;20024;-89
2023/07/20 07:28:51;;;;;;;5.93;2.65;;;18.90;99.90;;;;;;5078548;28;20480;-91
2023/07/20 07:31:17;;;;;;;2.88;1.20;;;18.90;99.90;;;;;;5078095;28;20028;-91
2023/07/20 07:33:42;;;;;;;2.72;1.20;;;19.00;99.90;;;;;;5078387;28;20016;-89
2023/07/20 07:36:08;;;;;;;3.92;1.20;;;19.00;99.90;;;;;;5061883;28;20031;-90
2023/07/20 07:41:56;;;;;;;3.28;1.02;;;19.10;99.90;;;;;;5095648;28;20521;-91
2023/07/20 07:44:22;;;;;;;2.25;1.17;;;19.10;99.90;;;;;;5077963;28;20028;-91
2023/07/20 07:46:48;;;;;;;3.58;1.00;;;19.20;99.90;;;;;;5078108;28;20059;-90
2023/07/20 07:49:15;;;;;;;5.07;0.80;;;19.20;99.90;;;;;;5077724;28;20028;-91
2023/07/20 07:51:40;;;;;;;2.53;0.98;;;19.30;99.90;;;;;;5094377;28;20067;-90
2023/07/20 07:54:06;;;;;;;2.95;0.90;;;19.30;99.90;;;;;;5077631;28;20028;-90
2023/07/20 07:56:32;;;;;;;2.45;1.00;;;19.40;99.90;;;;;;5061275;28;20594;-92
2023/07/20 07:58:57;;;;;;;2.53;1.00;;;19.40;99.90;;;;;;5094802;28;20020;-91
2023/07/20 08:01:23;;;;;;;2.15;0.88;;;19.40;99.90;;;;;;5061589;28;20028;-90
2023/07/20 08:03:49;;;;;;;1.25;0.77;;;19.50;99.90;;;;;;5061073;28;20110;-91
2023/07/20 08:06:15;;;;;;;2.10;0.93;;;19.50;99.90;;;;;;5060677;28;20028;-91
2023/07/20 08:08:41;;;;;;;2.50;1.10;;;19.60;99.90;;;;;;5077430;28;20476;-90
2023/07/20 08:11:06;;;;;;;3.13;0.90;;;19.60;99.90;;;;;;5094558;28;20055;-87
2023/07/20 08:13:32;;;;;;;2.42;1.08;;;19.60;99.90;;;;;;5062523;28;20499;-87
2023/07/20 08:15:58;;;;;;;4.30;1.10;;;19.70;99.90;;;;;;5077767;28;20458;-89
2023/07/20 08:18:24;;;;;;;3.25;1.10;;;19.70;99.90;;;;;;5095061;28;20024;-90
2023/07/20 08:20:50;;;;;;;1.00;0.82;;;19.70;99.90;;;;;;5060974;28;20031;-88
2023/07/20 08:23:16;;;;;;;2.95;0.80;;;19.70;99.90;;;;;;5076549;28;20037;-88
2023/07/20 08:25:45;;;;;;;2.63;0.68;;;19.70;99.90;;;;;;5069552;28;20020;-96
2023/07/20 08:28:16;;;;;;;2.28;0.95;;;19.80;99.90;;;;;;5113244;28;20067;-95
2023/07/20 08:30:46;;;;;;;1.13;0.63;;;19.80;99.90;;;;;;5112239;28;20020;-95
2023/07/20 08:33:19;;;;;;;2.78;0.90;;;19.90;99.90;;;;;;5097219;28;20054;-86
2023/07/20 08:35:45;;;;;;;3.33;0.90;;;20.00;99.90;;;;;;5092937;28;20024;-86
2023/07/20 08:38:10;;;;;;;1.10;0.90;;;20.00;99.90;;;;;;5076240;28;20055;-86
2023/07/20 08:40:44;;;;;;;2.05;1.10;;;20.10;99.90;;;;;;5092889;28;20388;-86
2023/07/20 08:43:16;;;;;;;3.00;0.75;;;20.10;99.90;;;;;;5076622;28;20035;-86
2023/07/20 08:45:43;;;;;;;2.75;0.90;;;20.20;99.30;;;;;;5092887;28;20046;-85
2023/07/20 08:48:09;;;;;;;0.73;0.70;;;20.20;98.70;;;;;;5092834;28;20066;-90
2023/07/20 08:50:35;;;;;;;1.85;0.80;;;20.20;98.70;;;;;;5093837;28;20482;-90
2023/07/20 08:53:02;;;;;;;2.60;0.80;;;20.30;98.70;;;;;;5093842;28;20020;-91
2023/07/20 08:55:29;;;;;;;3.38;0.80;;;20.30;98.00;;;;;;5093548;28;20062;-91
2023/07/20 08:57:56;;;;;;;1.70;0.95;;;20.30;97.80;;;;;;5094488;28;20024;-91
2023/07/20 09:00:22;;;;;;;2.13;0.85;;;20.30;97.40;;;;;;5059991;28;20035;-91
2023/07/20 09:02:51;;;;;;;2.05;0.95;;;20.30;97.30;;;;;;5077143;28;20098;-90
2023/07/20 09:05:20;;;;;;;2.53;1.20;;;20.30;97.40;;;;;;5094151;28;20024;-86
2023/07/20 09:07:46;;;;;;;1.98;1.05;;;20.40;97.80;;;;;;5093085;28;20099;-85
2023/07/20 09:10:12;;;;;;;1.50;1.10;;;20.50;98.00;;;;;;5076561;28;20067;-89
2023/07/20 09:12:40;;;;;;;2.88;1.45;;;20.50;98.00;;;;;;5069067;28;20094;-95
2023/07/20 09:15:07;;;;;;;3.20;0.93;;;20.50;97.70;;;;;;5095253;28;20384;-90
2023/07/20 09:17:33;;;;;;;2.30;0.98;;;20.60;97.80;;;;;;5076891;28;20118;-91
2023/07/20 09:20:05;;;;;;;1.88;0.90;;;20.60;96.40;;;;;;5094492;28;20048;-90
2023/07/20 09:22:31;;;;;;;2.25;1.10;;;20.60;96.20;;;;;;5078238;28;20024;-90
2023/07/20 09:24:58;;;;;;;1.00;0.90;;;20.60;96.10;;;;;;5076927;28;20085;-90
2023/07/20 09:27:39;;;;;;;1.83;0.90;;;20.60;95.00;;;;;;5095603;28;20381;-89
2023/07/20 09:30:09;;;;;;;1.97;0.90;;;20.60;95.20;;;;;;5077488;28;20100;-94
2023/07/20 09:33:03;;;;;;;2.80;1.00;;;20.60;95.10;;;;;;5069749;28;20739;-95
2023/07/20 09:35:29;;;;;;;2.05;0.90;;;20.60;95.00;;;;;;5099525;28;20166;-96
2023/07/20 09:37:59;;;;;;;4.63;1.38;;;20.70;95.30;;;;;;5098900;28;20496;-96
2023/07/20 09:40:28;;;;;;;1.73;1.00;;;20.80;95.50;;;;;;5093384;28;20032;-85
2023/07/20 09:43:03;;;;;;;1.85;0.85;;;20.80;95.60;;;;;;5093111;28;20027;-89
2023/07/20 09:45:40;;;;;;;2.08;1.00;;;20.90;93.90;;;;;;5062165;28;20028;-89
2023/07/20 09:48:07;;;;;;;2.08;1.10;;;20.90;94.50;;;;;;5093074;28;20020;-89
2023/07/20 09:50:33;;;;;;;2.85;1.27;;;20.90;94.20;;;;;;5092766;28;20020;-89
2023/07/20 09:53:02;;;;;;;1.80;0.90;;;21.00;93.90;;;;;;5093565;28;20036;-89
2023/07/20 09:55:29;;;;;;;1.20;0.60;;;21.00;93.90;;;;;;5092974;28;20016;-85
2023/07/20 09:57:56;;;;;;;1.65;0.80;;;21.00;93.70;;;;;;5076037;28;20032;-85
2023/07/20 10:00:22;;;;;;;1.50;0.90;;;21.00;93.70;;;;;;5076455;28;20381;-85
2023/07/20 10:02:51;;;;;;;3.28;1.10;;;21.00;93.70;;;;;;5096277;28;20028;-86
2023/07/20 10:05:17;;;;;;;2.42;0.98;;;21.00;93.90;;;;;;5097054;28;20028;-86
2023/07/20 10:07:53;;;;;;;1.85;0.80;;;21.00;94.10;;;;;;5095447;28;20117;-91
2023/07/20 10:10:19;;;;;;;4.30;0.98;;;21.00;94.00;;;;;;5101445;28;20028;-90
2023/07/20 10:12:47;;;;;;;1.65;0.95;;;21.00;94.20;;;;;;5076867;28;20090;-96
2023/07/20 10:15:37;;;;;;;4.88;1.10;;;21.00;94.20;;;;;;5086929;28;20033;-95
2023/07/20 10:18:28;;;;;;;2.03;0.90;;;21.10;93.90;;;;;;5097187;28;20384;-86
2023/07/20 10:20:56;;;;;;;1.00;0.90;;;21.10;94.10;;;;;;5095315;28;20020;-85
2023/07/20 10:23:23;;;;;;;2.83;1.10;;;21.20;94.40;;;;;;5095294;28;20449;-85
2023/07/20 10:25:50;;;;;;;1.25;1.15;;;21.20;94.50;;;;;;5078503;28;20481;-85
2023/07/20 10:28:16;;;;;;;2.05;1.45;;;21.30;94.70;;;;;;5078485;28;20430;-92
2023/07/20 10:30:43;;;;;;;2.40;1.27;;;21.30;94.10;;;;;;5096473;28;20031;-92
2023/07/20 10:33:09;;;;;;;5.30;1.52;;;21.30;93.40;;;;;;5062642;28;20053;-93
2023/07/20 10:35:56;;;;;;;1.98;1.40;;;21.40;93.70;;;;;;5079573;28;20024;-93
2023/07/20 10:38:47;;;;;;;3.38;1.20;;;21.50;94.00;;;;;;5096751;28;20023;-92
2023/07/20 10:41:25;;;;;;;1.10;0.90;;;21.60;94.20;;;;;;5095926;28;20024;-84
2023/07/20 10:43:57;;;;;;;1.48;1.08;;;21.60;94.30;;;;;;5095057;28;20035;-85
2023/07/20 10:46:38;;;;;;;1.85;1.20;;;21.70;94.20;;;;;;5095524;28;20054;-88
2023/07/20 10:49:08;;;;;;;;;;;21.80;93.70;;;;;;5096767;28;20377;-88
2023/07/20 10:51:55;;;;;;;2.58;0.90;;;21.80;93.50;;;;;;5078968;28;20311;-89
2023/07/20 10:54:21;;;;;;;2.47;1.30;;;21.80;93.30;;;;;;5095306;28;20035;-88
2023/07/20 10:56:48;;;;;;;2.92;2.03;;;21.90;93.10;;;;;;5095115;28;20031;-88
2023/07/20 10:59:31;;;;;;;1.25;0.90;;;21.90;93.00;;;;;;5061757;28;20028;-88
2023/07/20 11:02:01;;;;;;;1.35;0.77;;;22.00;92.80;;;;;;5095370;28;20031;-88
2023/07/20 11:04:48;;;;;;;2.35;0.73;;;22.00;92.90;;;;;;5078489;28;20058;-88
2023/07/20 11:07:18;;;;;;;3.03;1.10;;;22.10;93.10;;;;;;5094893;28;20026;-88
2023/07/20 11:09:44;;;;;;;4.03;1.10;;;22.10;92.50;;;;;;5095576;28;20055;-91
2023/07/20 11:12:17;;;;;;;2.30;0.90;;;22.20;92.40;;;;;;5077345;28;20073;-84
2023/07/20 11:14:54;;;;;;;1.38;0.80;;;22.30;92.30;;;;;;5076173;28;20035;-84
2023/07/20 11:17:22;;;;;;;2.10;1.20;;;22.30;92.40;;;;;;5078988;28;20122;-83
2023/07/20 11:19:56;;;;;;;2.17;1.00;;;22.40;92.20;;;;;;5094828;28;20384;-94
2023/07/20 11:22:22;;;;;;;1.20;0.93;;;22.50;92.10;;;;;;5095254;28;20031;-93
2023/07/20 11:24:49;;;;;;;1.83;0.95;;;22.50;92.00;;;;;;5095597;28;20385;-93
2023/07/20 11:27:15;;;;;;;1.02;0.93;;;22.50;91.80;;;;;;5078192;28;20024;-94
2023/07/20 11:29:41;;;;;;;1.85;1.08;;;22.50;91.40;;;;;;5096162;28;20012;-92
2023/07/20 11:32:07;;;;;;;0.65;0.65;;;22.60;91.50;;;;;;5080060;28;20042;-92
2023/07/20 11:34:35;;;;;;;1.08;0.60;;;22.60;91.70;;;;;;5061545;28;20458;-91
2023/07/20 11:37:02;;;;;;;1.98;0.90;;;22.60;92.20;;;;;;5078603;28;20446;-90
2023/07/20 11:39:29;;;;;;;1.70;1.00;;;22.70;91.80;;;;;;5078804;28;20101;-90
2023/07/20 11:41:55;;;;;;;1.35;0.80;;;22.70;91.20;;;;;;5078150;28;20169;-90
2023/07/20 11:44:28;;;;;;;3.08;1.20;;;22.70;91.30;;;;;;5077615;28;20031;-91
2023/07/20 11:47:28;;;;;;;1.02;0.82;;;22.80;91.40;;;;;;5094504;28;20103;-90
2023/07/20 11:49:54;;;;;;;1.57;0.70;;;22.80;90.60;;;;;;5091073;28;20055;-90
2023/07/20 11:52:23;;;;;;;1.38;0.88;;;22.80;90.90;;;;;;5077348;28;20031;-89
2023/07/20 11:54:49;;;;;;;1.60;0.85;;;22.80;90.50;;;;;;5093947;28;20039;-89
2023/07/20 11:57:19;;;;;;;2.72;0.88;;;22.80;89.90;;;;;;5077199;28;20028;-89
2023/07/20 12:00:01;;;;;;;2.33;1.05;;;22.80;89.70;;;;;;5077264;28;20032;-90
2023/07/20 12:02:27;;;;;;;1.02;0.70;;;22.70;90.10;;;;;;5094700;28;20114;-89
2023/07/20 12:04:55;;;;;;;1.45;0.88;;;22.80;90.40;;;;;;5076876;28;20028;-86
2023/07/20 12:07:21;;;;;;;1.80;0.90;;;22.80;90.50;;;;;;5093254;28;20020;-85
2023/07/20 12:10:12;;;;;;;1.75;0.90;;;22.80;90.50;;;;;;5094443;28;20016;-93
2023/07/20 12:12:38;;;;;;;;;;;22.80;88.50;;;;;;5094936;28;20040;-94
2023/07/20 12:15:22;;;;;;;3.05;1.20;;;22.80;89.50;;;;;;5094719;28;19908;-93
2023/07/20 12:17:52;;;;;;;2.00;0.93;;;22.80;90.10;;;;;;5094282;28;20107;-95
2023/07/20 12:20:36;;;;;;;1.58;0.85;;;22.80;90.40;;;;;;5077177;28;20481;-94
2023/07/20 12:23:12;;;;;;;1.35;1.00;;;22.90;90.80;;;;;;5094257;28;20024;-95
2023/07/20 12:25:42;;;;;;;4.60;1.00;;;22.90;91.10;;;;;;5094762;28;20066;-95
2023/07/20 12:28:13;;;;;;;2.40;1.02;;;23.00;91.10;;;;;;5079113;28;20046;-94
2023/07/20 12:30:40;;;;;;;1.98;1.30;;;23.10;90.70;;;;;;5094895;28;20047;-94
2023/07/20 12:33:06;;;;;;;1.98;1.27;;;23.10;90.10;;;;;;5094276;28;20119;-89
2023/07/20 12:35:33;;;;;;;3.08;1.20;;;23.10;89.20;;;;;;5093239;28;20465;-89
2023/07/20 12:37:58;;;;;;;3.92;1.20;;;23.10;88.70;;;;;;5095200;28;20028;-88
2023/07/20 12:40:25;;;;;;;2.45;0.90;;;23.10;88.80;;;;;;5076975;28;20024;-89
2023/07/20 12:42:51;;;;;;;3.50;0.95;;;23.10;89.00;;;;;;5093222;28;20043;-89
2023/07/20 12:45:17;;;;;;;1.42;0.88;;;23.10;88.20;;;;;;5093304;28;20017;-89
2023/07/20 12:47:43;;;;;;;3.03;0.90;;;23.10;89.00;;;;;;5076507;28;20434;-89
2023/07/20 12:50:10;;;;;;;2.22;1.10;;;23.10;89.30;;;;;;5076445;28;20102;-89
2023/07/20 12:52:40;;;;;;;2.70;1.00;;;23.20;89.60;;;;;;5093055;28;20099;-89
2023/07/20 12:55:07;;;;;;;3.60;0.63;;;23.30;89.70;;;;;;5093618;28;20035;-94
2023/07/20 12:57:37;;;;;;;1.23;0.73;;;23.30;89.60;;;;;;5093839;28;20024;-93
2023/07/20 13:00:09;;;;;;;2.43;1.00;;;23.40;89.80;;;;;;5078073;28;20025;-93